Accueil
METAR-TAF:

METAR-TAF

Aéroports :

Fairbanks, Alaska, États-Unis

latitude: 64-48-14N, longitude: 147-52-34W, altitude: 132 m

Observation

Le bulletin a été fait il y a 1 heure et 3 minutes, à 21:53 UTC
Vent calme
Température -25°C
Humidité 69%
Pression 1021 hPa
Visibilité: 16.1 km
Ciel clair

METAR: PAFA 282153Z 00000KT 10SM CLR M25/M29 A3016 RMK AO2 SLP233 T12501289 $

Heure: 13:56 (22:56 UTC)

Prévision

Le bulletin a été fait il y a 5 heures et 17 minutes, à 17:39 UTC
Prévision valable du 28 à 18 UTC au 29 à 24 UTC
Vent 3 kt de nord/nord-est
Visibilité: 10 km
Ciel clair

TAF: PAFA 281739Z 2818/2924 03003KT P6SM SKC

Observations et prévisions météorologiques de plus de 4000 aéroports (messages METAR et TAF).

Les stations disponibles sont représentées par des disques jaunes et rouges sur la carte.

Passer la souris dessus pour voir le nom de la station.

Cliquer dessus pour voir les observations et prévisions météorologiques.

Pour changer de carte: cliquez sur les boutons verts avec une croix noire pour zoomer, sur le bouton vert avec un tiret pour effectuer un zoom arrière, ou sur les flèches vertes pour les cartes adjacentes.


METAR-TAF: